Time;durP1;ratioP1;P1;durP2;ratioP2;P2;SDS_P1;SDS_P2;PMS_P1;PMS_P2;Temp;Humidity;BMP_temperature;BMP_pressure;BME280_temperature;BME280_humidity;BME280_pressure;Samples;Min_cycle;Max_cycle;Signal;HPM_P1;HPM_P2
2022/01/14 00:01:07;;;;;;;;;;;-0.90;99.90;;;;;;5081694;28;19928;-75
2022/01/14 00:03:34;;;;;;;;;;;-0.90;99.90;;;;;;5080985;28;19924;-76
2022/01/14 00:06:01;;;;;;;;;;;-0.90;99.90;;;;;;5073734;28;20295;-76
2022/01/14 00:08:28;;;;;;;;;;;-0.90;99.90;;;;;;5079581;28;19924;-76
2022/01/14 00:10:56;;;;;;;;;;;-0.90;99.90;;;;;;5075715;28;19997;-76
2022/01/14 00:16:08;;;;;;;;;;;-0.90;99.90;;;;;;5077934;28;19936;-76
2022/01/14 00:18:35;;;;;;;;;;;-0.90;99.90;;;;;;5076932;28;19936;-76
2022/01/14 00:21:02;;;;;;;;;;;-0.90;99.90;;;;;;5077347;28;19967;-76
2022/01/14 00:23:36;;;;;;;;;;;-1.00;99.90;;;;;;5079263;28;19931;-76
2022/01/14 00:34:32;;;;;;;;;;;-1.00;99.90;;;;;;5107061;28;19989;-76
2022/01/14 00:37:00;;;;;;;;;;;-1.00;99.90;;;;;;5084810;28;20022;-76
2022/01/14 00:39:26;;;;;;;;;;;-1.00;99.90;;;;;;5104070;28;20358;-76
2022/01/14 00:41:53;;;;;;;;;;;-0.90;99.90;;;;;;5080946;28;19924;-76
2022/01/14 00:44:20;;;;;;;;;;;-0.90;99.90;;;;;;5104383;28;19930;-76
2022/01/14 00:46:47;;;;;;;;;;;-0.90;99.90;;;;;;5094148;28;19932;-75
2022/01/14 00:49:15;;;;;;;;;;;-0.90;99.90;;;;;;5105104;28;19969;-75
2022/01/14 00:51:43;;;;;;;;;;;-0.80;99.90;;;;;;5090104;28;20655;-76
2022/01/14 00:54:10;;;;;;;;;;;-0.80;99.90;;;;;;5106769;28;20402;-76
2022/01/14 00:59:16;;;;;;;;;;;-0.80;99.90;;;;;;5120218;28;19986;-77
2022/01/14 01:01:43;;;;;;;;;;;-0.80;99.90;;;;;;5108371;28;19952;-77
2022/01/14 01:04:14;;;;;;;;;;;-0.80;99.90;;;;;;5093056;28;20918;-77
2022/01/14 01:06:41;;;;;;;;;;;-0.80;99.90;;;;;;5076943;28;19930;-77
2022/01/14 01:09:12;;;;;;;;;;;-0.90;99.90;;;;;;5100004;28;19970;-77
2022/01/14 01:11:44;;;;;;;;;;;-0.90;99.90;;;;;;5078106;28;20386;-77
2022/01/14 01:14:16;;;;;;;;;;;-0.90;99.90;;;;;;5086980;28;19930;-79
2022/01/14 01:16:43;;;;;;;;;;;-0.90;99.90;;;;;;5080478;28;19931;-77
2022/01/14 01:19:10;;;;;;;;;;;-1.00;99.90;;;;;;5084678;28;19924;-78
2022/01/14 01:21:38;;;;;;;;;;;-1.00;99.90;;;;;;5084471;28;20382;-77
2022/01/14 01:24:05;;;;;;;;;;;-1.00;99.90;;;;;;5081225;28;20014;-77
2022/01/14 01:26:36;;;;;;;;;;;-1.10;99.90;;;;;;5085085;28;19928;-79
2022/01/14 01:31:39;;;;;;;;;;;-1.10;99.90;;;;;;5079257;28;20019;-78
2022/01/14 01:34:14;;;;;;;;;;;-1.10;99.90;;;;;;5079025;28;20110;-78
2022/01/14 01:36:42;;;;;;;;;;;-1.10;99.90;;;;;;5083173;28;19931;-78
2022/01/14 01:39:13;;;;;;;;;;;-1.10;99.90;;;;;;5099566;28;19993;-77
2022/01/14 01:41:41;;;;;;;;;;;-1.10;99.90;;;;;;5078685;28;20306;-77
2022/01/14 01:44:08;;;;;;;;;;;-1.10;99.90;;;;;;5082822;28;19925;-78
2022/01/14 01:46:38;;;;;;;;;;;-1.10;99.90;;;;;;5084558;28;19925;-78
2022/01/14 01:49:05;;;;;;;;;;;-1.20;99.90;;;;;;5084043;28;20018;-78
2022/01/14 01:51:32;;;;;;;;;;;-1.10;99.90;;;;;;5082837;28;19931;-78
2022/01/14 01:53:59;;;;;;;;;;;-1.20;99.90;;;;;;5078122;28;20043;-78
2022/01/14 01:56:26;;;;;;;;;;;-1.30;99.90;;;;;;5078320;28;20019;-78
2022/01/14 01:58:56;;;;;;;;;;;-1.30;99.90;;;;;;5082469;28;19930;-78
2022/01/14 02:01:24;;;;;;;;;;;-1.20;99.90;;;;;;5091274;28;20294;-78
2022/01/14 02:03:52;;;;;;;;;;;-1.30;99.90;;;;;;5079118;28;20016;-78
2022/01/14 02:06:20;;;;;;;;;;;-1.30;99.90;;;;;;5078572;28;20362;-78
2022/01/14 02:08:47;;;;;;;;;;;-1.40;99.90;;;;;;5075808;28;19940;-77
2022/01/14 02:11:14;;;;;;;;;;;-1.30;99.90;;;;;;5081671;28;19924;-78
2022/01/14 02:13:41;;;;;;;;;;;-1.40;99.90;;;;;;5081913;28;19924;-78
2022/01/14 02:24:06;;;;;;;;;;;-1.50;99.90;;;;;;5081681;28;19924;-78
2022/01/14 02:26:33;;;;;;;;;;;-1.50;99.90;;;;;;5075877;28;20454;-77
2022/01/14 02:29:00;;;;;;;;;;;-1.50;99.90;;;;;;5076327;28;20023;-78
2022/01/14 02:31:27;;;;;;;;;;;-1.50;99.90;;;;;;5083028;28;19968;-77
2022/01/14 02:33:53;;;;;;;;;;;-1.50;99.90;;;;;;5075435;28;19931;-77
2022/01/14 02:36:20;;;;;;;;;;;-1.50;99.90;;;;;;5086572;28;19924;-78
2022/01/14 02:38:47;;;;;;;;;;;-1.40;99.90;;;;;;5087489;28;19928;-77
2022/01/14 02:41:15;;;;;;;;;;;-1.40;99.90;;;;;;5088604;28;19931;-78
2022/01/14 02:43:41;;;;;;;;;;;-1.40;99.90;;;;;;5079892;28;19936;-78
2022/01/14 02:46:09;;;;;;;;;;;-1.50;99.90;;;;;;5077441;28;20371;-78
2022/01/14 02:48:35;;;;;;;;;;;-1.50;99.90;;;;;;5087990;28;20012;-78
2022/01/14 02:51:10;;;;;;;;;;;-1.50;99.90;;;;;;5088621;28;19931;-77
2022/01/14 02:56:05;;;;;;;;;;;-1.60;99.90;;;;;;5078135;28;19968;-77
2022/01/14 02:58:33;;;;;;;;;;;-1.60;99.90;;;;;;5081074;28;20343;-77
2022/01/14 03:01:01;;;;;;;;;;;-1.60;99.90;;;;;;5076205;28;20429;-77
2022/01/14 03:03:31;;;;;;;;;;;-1.60;99.90;;;;;;5078911;28;20385;-77
2022/01/14 03:05:59;;;;;;;;;;;-1.60;99.90;;;;;;5083150;28;19956;-77
2022/01/14 03:08:26;;;;;;;;;;;-1.60;99.90;;;;;;5088087;28;20582;-77
2022/01/14 03:10:57;;;;;;;;;;;-1.60;99.90;;;;;;5082450;28;19931;-77
2022/01/14 03:13:24;;;;;;;;;;;-1.60;99.90;;;;;;5090625;28;19963;-78
2022/01/14 03:15:51;;;;;;;;;;;-1.60;99.90;;;;;;5080705;28;20339;-78
2022/01/14 03:18:23;;;;;;;;;;;-1.60;99.90;;;;;;5080144;28;19931;-77
2022/01/14 03:21:04;;;;;;;;;;;-1.60;99.90;;;;;;5085448;28;19975;-77
2022/01/14 03:23:30;;;;;;;;;;;-1.50;99.90;;;;;;5081849;28;20566;-77
2022/01/14 03:25:59;;;;;;;;;;;-1.50;99.90;;;;;;5082521;28;19948;-77
2022/01/14 03:28:25;;;;;;;;;;;-1.50;99.90;;;;;;5089659;28;20410;-77
2022/01/14 03:30:53;;;;;;;;;;;-1.50;99.90;;;;;;5073976;28;19931;-78
2022/01/14 03:33:20;;;;;;;;;;;-1.60;99.90;;;;;;5087337;28;19930;-78
2022/01/14 03:35:47;;;;;;;;;;;-1.60;99.90;;;;;;5083777;28;19971;-77
2022/01/14 03:38:14;;;;;;;;;;;-1.70;99.90;;;;;;5087157;28;19938;-77
2022/01/14 03:40:40;;;;;;;;;;;-1.80;99.90;;;;;;5082589;28;20011;-77
2022/01/14 03:43:07;;;;;;;;;;;-1.80;99.90;;;;;;5076407;28;20376;-77
2022/01/14 03:45:34;;;;;;;;;;;-1.90;99.90;;;;;;5079129;28;20003;-77
2022/01/14 03:48:01;;;;;;;;;;;-1.90;99.90;;;;;;5076656;28;19933;-77
2022/01/14 03:50:28;;;;;;;;;;;-1.90;99.90;;;;;;5085805;28;19993;-77
2022/01/14 03:52:55;;;;;;;;;;;-1.80;99.90;;;;;;5089797;28;19967;-77
2022/01/14 03:55:22;;;;;;;;;;;-1.90;99.90;;;;;;5078405;28;19924;-77
2022/01/14 03:57:49;;;;;;;;;;;-1.90;99.90;;;;;;5084071;28;20367;-77
2022/01/14 04:00:17;;;;;;;;;;;-1.90;99.90;;;;;;5083765;28;20015;-77
2022/01/14 04:02:44;;;;;;;;;;;-1.90;99.90;;;;;;5092170;28;20294;-77
2022/01/14 04:05:11;;;;;;;;;;;-2.00;99.90;;;;;;5079648;28;19924;-77
2022/01/14 04:07:38;;;;;;;;;;;-2.00;99.90;;;;;;5085944;28;20658;-77
2022/01/14 04:10:05;;;;;;;;;;;-2.00;99.90;;;;;;5082811;28;19928;-77
2022/01/14 04:13:22;;;;;;;;;;;-2.00;99.90;;;;;;5078656;28;20008;-77
2022/01/14 04:15:37;;;;;;;;;;;-2.00;99.90;;;;;;5074692;28;20042;-77
2022/01/14 04:18:03;;;;;;;;;;;-2.10;99.90;;;;;;5074198;28;20007;-77
2022/01/14 04:20:31;;;;;;;;;;;-2.00;99.90;;;;;;5086004;28;20005;-77
2022/01/14 04:22:57;;;;;;;;;;;-2.00;99.90;;;;;;5076244;28;20538;-77
2022/01/14 04:25:24;;;;;;;;;;;-2.00;99.90;;;;;;5091591;28;20378;-77
2022/01/14 04:27:51;;;;;;;;;;;-1.90;99.90;;;;;;5073570;28;20449;-77
2022/01/14 04:30:19;;;;;;;;;;;-2.00;99.90;;;;;;5075608;28;19956;-77
2022/01/14 04:32:46;;;;;;;;;;;-1.90;99.90;;;;;;5090037;28;19925;-77
2022/01/14 04:35:12;;;;;;;;;;;-2.00;99.90;;;;;;5076636;28;20003;-77
2022/01/14 04:37:39;;;;;;;;;;;-2.00;99.90;;;;;;5086040;28;19925;-77
2022/01/14 04:40:06;;;;;;;;;;;-2.00;99.90;;;;;;5076206;28;20460;-77
2022/01/14 04:42:34;;;;;;;;;;;-2.00;99.90;;;;;;5078658;28;20051;-77
2022/01/14 04:45:00;;;;;;;;;;;-2.00;99.90;;;;;;5079339;28;20272;-77
2022/01/14 04:47:44;;;;;;;;;;;-2.00;99.90;;;;;;5080979;28;20023;-77
2022/01/14 04:50:12;;;;;;;;;;;-2.10;99.90;;;;;;5083639;28;20058;-76
2022/01/14 04:52:39;;;;;;;;;;;-2.00;99.90;;;;;;5074741;28;20024;-77
2022/01/14 04:55:07;;;;;;;;;;;-2.10;99.90;;;;;;5078017;28;20375;-77
2022/01/14 04:57:34;;;;;;;;;;;-2.20;99.90;;;;;;5089598;28;19967;-78
2022/01/14 05:00:03;;;;;;;;;;;-2.20;99.90;;;;;;5095348;28;19949;-77
2022/01/14 05:02:29;;;;;;;;;;;-2.20;99.90;;;;;;5092514;28;20011;-77
2022/01/14 05:04:58;;;;;;;;;;;-2.20;99.90;;;;;;5084148;28;20355;-77
2022/01/14 05:07:26;;;;;;;;;;;-2.10;99.90;;;;;;5083158;28;19928;-77
2022/01/14 05:10:47;;;;;;;;;;;-2.10;99.90;;;;;;5093798;28;19924;-77
2022/01/14 05:12:43;;;;;;;;;;;-2.10;99.90;;;;;;5084622;28;20003;-77
2022/01/14 05:15:10;;;;;;;;;;;-2.10;99.90;;;;;;5089945;28;19924;-77
2022/01/14 05:17:37;;;;;;;;;;;-2.10;99.90;;;;;;5083089;28;20015;-75
2022/01/14 05:20:05;;;;;;;;;;;-2.10;99.90;;;;;;5078626;28;19924;-76
2022/01/14 05:22:31;;;;;;;;;;;-2.10;99.90;;;;;;5086044;28;20383;-75
2022/01/14 05:24:58;;;;;;;;;;;-2.10;99.90;;;;;;5108790;27;19928;-76
2022/01/14 05:27:25;;;;;;;;;;;-2.20;99.90;;;;;;5087065;28;22100;-76
2022/01/14 05:29:51;;;;;;;;;;;-2.20;99.90;;;;;;5075836;28;19924;-76
2022/01/14 05:32:20;;;;;;;;;;;-2.20;99.90;;;;;;5095861;28;19953;-75
2022/01/14 05:34:47;;;;;;;;;;;-2.20;99.90;;;;;;5091251;28;19983;-76
2022/01/14 05:37:14;;;;;;;;;;;-2.20;99.90;;;;;;5086570;28;19928;-76
2022/01/14 05:39:41;;;;;;;;;;;-2.20;99.90;;;;;;5088354;28;19930;-76
2022/01/14 05:42:09;;;;;;;;;;;-2.20;99.90;;;;;;5082882;28;19924;-76
2022/01/14 05:44:42;;;;;;;;;;;-2.20;99.90;;;;;;5053529;28;20047;-76
2022/01/14 05:47:14;;;;;;;;;;;-2.10;99.90;;;;;;5097421;28;20410;-77
2022/01/14 05:49:41;;;;;;;;;;;-2.10;99.90;;;;;;5086653;28;19947;-76
2022/01/14 05:52:07;;;;;;;;;;;-2.10;99.90;;;;;;5079724;28;20027;-76
2022/01/14 05:54:34;;;;;;;;;;;-2.00;99.90;;;;;;5084896;28;20027;-77
2022/01/14 05:57:01;;;;;;;;;;;-2.10;99.90;;;;;;5074946;28;20027;-76
2022/01/14 05:59:27;;;;;;;;;;;-2.10;99.90;;;;;;5075964;28;19928;-76
2022/01/14 06:01:54;;;;;;;;;;;-2.10;99.90;;;;;;5089235;28;20015;-76
2022/01/14 06:04:21;;;;;;;;;;;-2.10;99.90;;;;;;5079998;28;19932;-76
2022/01/14 06:06:48;;;;;;;;;;;-2.10;99.90;;;;;;5073601;28;19932;-76
2022/01/14 06:09:14;;;;;;;;;;;-2.10;99.90;;;;;;5082345;28;20013;-79
2022/01/14 06:11:41;;;;;;;;;;;-2.10;99.90;;;;;;5078093;28;20014;-79
2022/01/14 06:14:08;;;;;;;;;;;-2.10;99.90;;;;;;5070902;28;19928;-79
2022/01/14 06:16:38;;;;;;;;;;;-2.00;99.90;;;;;;5083387;28;19938;-79
2022/01/14 06:19:05;;;;;;;;;;;-2.00;99.90;;;;;;5084534;28;20421;-79
2022/01/14 06:21:33;;;;;;;;;;;-2.10;99.90;;;;;;5086277;28;19928;-79
2022/01/14 06:24:00;;;;;;;;;;;-2.10;99.90;;;;;;5100126;28;19925;-79
2022/01/14 06:26:26;;;;;;;;;;;-2.20;99.90;;;;;;5080498;28;20018;-79
2022/01/14 06:28:53;;;;;;;;;;;-2.20;99.90;;;;;;5078840;28;22013;-78
2022/01/14 06:31:21;;;;;;;;;;;-2.20;99.90;;;;;;5084510;28;19968;-78
2022/01/14 06:33:49;;;;;;;;;;;-2.30;99.90;;;;;;5096652;27;20005;-79
2022/01/14 06:36:15;;;;;;;;;;;-2.30;99.90;;;;;;5081873;28;19972;-78
2022/01/14 06:38:42;;;;;;;;;;;-2.30;99.90;;;;;;5080219;28;20007;-78
2022/01/14 06:41:09;;;;;;;;;;;-2.40;99.90;;;;;;5087106;28;19928;-78
2022/01/14 06:43:35;;;;;;;;;;;-2.40;99.90;;;;;;5075511;28;20875;-78
2022/01/14 06:46:02;;;;;;;;;;;-2.30;99.90;;;;;;5076667;28;19928;-78
2022/01/14 06:48:29;;;;;;;;;;;-2.30;99.90;;;;;;5090164;28;19925;-78
2022/01/14 06:50:56;;;;;;;;;;;-2.40;99.90;;;;;;5074182;28;19928;-78
2022/01/14 06:53:23;;;;;;;;;;;-2.30;99.90;;;;;;5087304;28;19935;-78
2022/01/14 06:55:50;;;;;;;;;;;-2.40;99.90;;;;;;5072200;28;20672;-78
2022/01/14 06:58:17;;;;;;;;;;;-2.40;99.90;;;;;;5066575;28;20166;-78
2022/01/14 07:00:43;;;;;;;;;;;-2.40;99.90;;;;;;5073338;28;20694;-78
2022/01/14 07:03:10;;;;;;;;;;;-2.50;99.90;;;;;;5086466;28;19928;-79
2022/01/14 07:05:37;;;;;;;;;;;-2.50;99.90;;;;;;5073746;28;19975;-78
2022/01/14 07:08:03;;;;;;;;;;;-2.50;99.90;;;;;;5088476;28;20023;-78
2022/01/14 07:10:35;;;;;;;;;;;-2.50;99.90;;;;;;5089732;28;19958;-78
2022/01/14 07:13:03;;;;;;;;;;;-2.50;99.90;;;;;;5086911;28;19950;-78
2022/01/14 07:15:30;;;;;;;;;;;-2.40;99.90;;;;;;5079388;28;19983;-78
2022/01/14 07:17:57;;;;;;;;;;;-2.40;99.90;;;;;;5085185;28;19991;-78
2022/01/14 07:20:23;;;;;;;;;;;-2.40;99.90;;;;;;5079594;28;19997;-78
2022/01/14 07:22:50;;;;;;;;;;;-2.50;99.90;;;;;;5088916;28;20011;-78
2022/01/14 07:25:18;;;;;;;;;;;-2.50;99.90;;;;;;5086260;28;20023;-78
2022/01/14 07:27:44;;;;;;;;;;;-2.50;99.90;;;;;;5080889;28;19930;-78
2022/01/14 07:30:12;;;;;;;;;;;-2.50;99.90;;;;;;5083863;28;19971;-78
2022/01/14 07:32:39;;;;;;;;;;;-2.50;99.90;;;;;;5082475;28;19928;-78
2022/01/14 07:35:06;;;;;;;;;;;-2.50;99.90;;;;;;5080036;28;19924;-78
2022/01/14 07:37:33;;;;;;;;;;;-2.50;99.90;;;;;;5081112;28;19930;-78
2022/01/14 07:39:59;;;;;;;;;;;-2.50;99.90;;;;;;5079451;28;19963;-78
2022/01/14 07:42:26;;;;;;;;;;;-2.40;99.90;;;;;;5081540;28;19924;-78
2022/01/14 07:44:53;;;;;;;;;;;-2.40;99.90;;;;;;5073690;28;19925;-78
2022/01/14 07:47:19;;;;;;;;;;;-2.40;99.90;;;;;;5074827;28;20346;-78
2022/01/14 07:49:47;;;;;;;;;;;-2.40;99.90;;;;;;5079863;28;19972;-78
2022/01/14 07:52:13;;;;;;;;;;;-2.50;99.90;;;;;;5071916;28;19971;-78
2022/01/14 07:54:40;;;;;;;;;;;-2.50;99.90;;;;;;5077852;28;20059;-78
2022/01/14 07:57:08;;;;;;;;;;;-2.50;99.90;;;;;;5078447;28;20305;-77
2022/01/14 07:59:36;;;;;;;;;;;-2.60;99.90;;;;;;5086511;28;19959;-77
2022/01/14 08:02:06;;;;;;;;;;;-2.60;99.90;;;;;;5076811;28;20353;-78
2022/01/14 08:04:35;;;;;;;;;;;-2.50;99.90;;;;;;5089597;28;19924;-78
2022/01/14 08:07:11;;;;;;;;;;;-2.50;99.90;;;;;;5077828;28;19924;-77
2022/01/14 08:09:40;;;;;;;;;;;-2.40;99.90;;;;;;5084698;28;19969;-77
2022/01/14 08:12:07;;;;;;;;;;;-2.40;99.90;;;;;;5078487;28;19978;-77
2022/01/14 08:14:34;;;;;;;;;;;-2.30;99.90;;;;;;5080493;28;20434;-77
2022/01/14 08:17:01;;;;;;;;;;;-2.30;99.90;;;;;;5092066;28;20011;-78
2022/01/14 08:19:32;;;;;;;;;;;-2.30;99.90;;;;;;5090213;27;20043;-77
2022/01/14 08:22:01;;;;;;;;;;;-2.30;99.90;;;;;;5078928;28;19931;-77
2022/01/14 08:24:28;;;;;;;;;;;-2.20;99.90;;;;;;5087616;28;19971;-77
2022/01/14 08:26:55;;;;;;;;;;;-2.10;99.90;;;;;;5072325;28;20029;-77
2022/01/14 08:29:22;;;;;;;;;;;-2.10;99.90;;;;;;5094966;28;20364;-77
2022/01/14 08:31:50;;;;;;;;;;;-2.10;99.90;;;;;;5084063;28;19931;-77
2022/01/14 08:34:17;;;;;;;;;;;-2.10;99.90;;;;;;5090004;28;20397;-77
2022/01/14 08:36:44;;;;;;;;;;;-2.10;99.90;;;;;;5082987;28;19991;-77
2022/01/14 08:39:11;;;;;;;;;;;-2.00;99.90;;;;;;5085513;28;20007;-78
2022/01/14 08:41:38;;;;;;;;;;;-1.90;99.90;;;;;;5074509;28;19964;-77
2022/01/14 08:44:04;;;;;;;;;;;-1.90;99.90;;;;;;5087077;28;20339;-76
2022/01/14 08:46:48;;;;;;;;;;;-2.00;99.90;;;;;;5082862;28;19973;-76
2022/01/14 08:49:15;;;;;;;;;;;-2.20;99.90;;;;;;5072293;28;20556;-76
2022/01/14 08:51:42;;;;;;;;;;;-2.30;99.90;;;;;;5083412;28;19970;-78
2022/01/14 08:54:08;;;;;;;;;;;-2.20;99.90;;;;;;5076508;28;19947;-78
2022/01/14 08:56:36;;;;;;;;;;;-2.10;99.90;;;;;;5087267;28;19966;-78
2022/01/14 08:59:03;;;;;;;;;;;-2.10;99.90;;;;;;5079873;28;19999;-78
2022/01/14 09:01:30;;;;;;;;;;;-1.90;99.90;;;;;;5075092;28;20036;-78
2022/01/14 09:03:57;;;;;;;;;;;-1.90;99.90;;;;;;5077360;28;19930;-79
2022/01/14 09:06:31;;;;;;;;;;;-1.90;99.90;;;;;;5060878;28;20393;-78
2022/01/14 09:08:57;;;;;;;;;;;-2.00;99.90;;;;;;5090172;28;19924;-78
2022/01/14 09:11:24;;;;;;;;;;;-2.00;99.90;;;;;;5078722;28;19997;-78
2022/01/14 09:13:52;;;;;;;;;;;-1.90;99.90;;;;;;5084559;28;19928;-78
2022/01/14 09:16:31;;;;;;;;;;;-1.80;99.90;;;;;;5084494;28;19954;-78
2022/01/14 09:18:58;;;;;;;;;;;-1.70;99.90;;;;;;5088474;28;20302;-78
2022/01/14 09:21:25;;;;;;;;;;;-1.60;99.90;;;;;;5086703;28;19924;-77
2022/01/14 09:23:57;;;;;;;;;;;-1.50;99.90;;;;;;5073779;28;19924;-77
2022/01/14 09:26:23;;;;;;;;;;;-1.40;99.90;;;;;;5082847;28;19924;-77
2022/01/14 09:28:50;;;;;;;;;;;-1.50;99.90;;;;;;5078289;28;20660;-77
2022/01/14 09:31:16;;;;;;;;;;;-1.60;99.90;;;;;;5080069;28;19967;-77
2022/01/14 09:33:43;;;;;;;;;;;-1.60;99.90;;;;;;5083360;28;20335;-77
2022/01/14 09:36:18;;;;;;;;;;;-1.50;99.90;;;;;;5079759;28;20438;-77
2022/01/14 09:38:45;;;;;;;;;;;-1.70;99.90;;;;;;5078603;28;19931;-77
2022/01/14 09:41:13;;;;;;;;;;;-1.50;99.90;;;;;;5078531;28;20600;-77
2022/01/14 09:43:40;;;;;;;;;;;-1.40;99.90;;;;;;5078361;28;20297;-77
2022/01/14 09:46:08;;;;;;;;;;;-1.30;99.90;;;;;;5086218;28;19932;-77
2022/01/14 09:48:35;;;;;;;;;;;-1.20;99.90;;;;;;5079926;28;19948;-78
2022/01/14 09:51:02;;;;;;;;;;;-1.10;99.90;;;;;;5080883;28;19924;-78
2022/01/14 09:53:29;;;;;;;;;;;-1.10;99.90;;;;;;5084181;28;20604;-77
2022/01/14 09:55:57;;;;;;;;;;;-1.00;99.90;;;;;;5079891;28;19924;-77
2022/01/14 09:58:24;;;;;;;;;;;-1.00;99.90;;;;;;5086667;28;20015;-77
2022/01/14 10:01:04;;;;;;;;;;;-1.00;99.90;;;;;;5083984;28;19924;-76
2022/01/14 10:03:31;;;;;;;;;;;-1.00;99.90;;;;;;5076293;28;20007;-77
2022/01/14 10:06:03;;;;;;;;;;;-0.90;99.90;;;;;;5093566;28;19973;-77
2022/01/14 10:08:29;;;;;;;;;;;-0.90;99.90;;;;;;5091396;28;19928;-77
2022/01/14 10:11:01;;;;;;;;;;;-0.80;99.90;;;;;;5083006;28;19939;-77
2022/01/14 10:13:28;;;;;;;;;;;-0.70;99.90;;;;;;5082660;28;20414;-77
2022/01/14 10:16:05;;;;;;;;;;;-0.60;99.90;;;;;;5086561;28;19925;-78
2022/01/14 10:18:34;;;;;;;;;;;-0.50;99.90;;;;;;5086509;28;20013;-77
2022/01/14 10:21:05;;;;;;;;;;;-0.40;99.90;;;;;;5080503;28;20015;-77
2022/01/14 10:23:40;;;;;;;;;;;-0.40;99.90;;;;;;5088916;28;19924;-77
2022/01/14 10:26:08;;;;;;;;;;;-0.40;99.90;;;;;;5077718;28;19932;-77
2022/01/14 10:28:36;;;;;;;;;;;-0.40;99.90;;;;;;5082365;28;19924;-77
2022/01/14 10:31:04;;;;;;;;;;;-0.50;99.90;;;;;;5077343;28;19954;-77
2022/01/14 10:33:31;;;;;;;;;;;-0.60;99.90;;;;;;5087003;28;19924;-77
2022/01/14 10:35:58;;;;;;;;;;;-0.50;99.90;;;;;;5084254;28;19963;-77
2022/01/14 10:38:26;;;;;;;;;;;-0.50;99.90;;;;;;5079043;28;19931;-77
2022/01/14 10:41:01;;;;;;;;;;;-0.40;99.90;;;;;;5077707;28;20706;-77
2022/01/14 10:43:32;;;;;;;;;;;-0.30;99.90;;;;;;5082084;28;20015;-77
2022/01/14 10:46:03;;;;;;;;;;;-0.20;99.90;;;;;;5088644;28;19928;-77
2022/01/14 10:48:32;;;;;;;;;;;0.00;99.90;;;;;;5079307;28;20543;-77
2022/01/14 10:51:01;;;;;;;;;;;-0.10;99.90;;;;;;5079570;28;19931;-77
2022/01/14 10:53:35;;;;;;;;;;;-0.10;99.90;;;;;;5086887;28;19928;-78
2022/01/14 10:56:09;;;;;;;;;;;-0.10;99.90;;;;;;5080471;28;19970;-78
2022/01/14 10:58:36;;;;;;;;;;;-0.20;99.90;;;;;;5081606;28;19971;-77
2022/01/14 11:01:08;;;;;;;;;;;-0.20;99.90;;;;;;5079381;28;20015;-78
2022/01/14 11:03:37;;;;;;;;;;;-0.20;99.90;;;;;;5088150;28;19952;-78
2022/01/14 11:06:14;;;;;;;;;;;-0.10;99.90;;;;;;5086130;28;20856;-77
2022/01/14 11:08:40;;;;;;;;;;;-0.20;99.90;;;;;;5083501;28;21039;-80
2022/01/14 11:11:07;;;;;;;;;;;0.00;99.90;;;;;;5082482;28;20343;-79
2022/01/14 11:13:35;;;;;;;;;;;-0.10;99.90;;;;;;5086583;28;19932;-79
2022/01/14 11:16:02;;;;;;;;;;;0.10;99.90;;;;;;5084100;28;19932;-80
2022/01/14 11:18:29;;;;;;;;;;;0.10;99.90;;;;;;5080560;28;19975;-81
2022/01/14 11:23:42;;;;;;;;;;;0.00;99.90;;;;;;5077291;28;19924;-75
2022/01/14 11:26:11;;;;;;;;;;;0.10;99.90;;;;;;5078040;28;19948;-75
2022/01/14 11:28:39;;;;;;;;;;;0.20;99.90;;;;;;5061642;28;19962;-75
2022/01/14 11:31:26;;;;;;;;;;;0.40;99.90;;;;;;5099650;27;19924;-75
2022/01/14 11:33:54;;;;;;;;;;;0.50;99.90;;;;;;5080360;28;19924;-75
2022/01/14 11:36:21;;;;;;;;;;;0.50;99.90;;;;;;5080282;28;19928;-75
2022/01/14 11:38:48;;;;;;;;;;;0.70;99.90;;;;;;5070993;28;19934;-75
2022/01/14 11:41:17;;;;;;;;;;;0.70;99.90;;;;;;5072218;28;19928;-75
2022/01/14 11:43:45;;;;;;;;;;;0.80;99.90;;;;;;5075640;28;19939;-75
2022/01/14 11:46:15;;;;;;;;;;;0.80;99.90;;;;;;5072785;28;19924;-75
2022/01/14 11:48:49;;;;;;;;;;;0.70;99.90;;;;;;5084644;28;19951;-75
2022/01/14 11:51:17;;;;;;;;;;;0.60;99.90;;;;;;5067207;28;19935;-75
2022/01/14 11:53:48;;;;;;;;;;;0.50;99.90;;;;;;5067745;28;19928;-75
2022/01/14 11:56:31;;;;;;;;;;;0.40;99.90;;;;;;5067350;28;19928;-75
2022/01/14 11:59:16;;;;;;;;;;;0.50;99.90;;;;;;5070670;28;19928;-75
2022/01/14 12:01:44;;;;;;;;;;;0.60;99.90;;;;;;5080688;28;19928;-75
2022/01/14 12:04:12;;;;;;;;;;;0.60;99.90;;;;;;5068997;28;19929;-75
2022/01/14 12:06:51;;;;;;;;;;;0.60;99.90;;;;;;5075065;28;20015;-75
2022/01/14 12:09:18;;;;;;;;;;;0.70;99.90;;;;;;5070881;28;19924;-75
2022/01/14 12:12:05;;;;;;;;;;;0.50;99.90;;;;;;5075323;28;19928;-74
2022/01/14 12:14:42;;;;;;;;;;;0.60;99.90;;;;;;5068484;28;19976;-75
2022/01/14 12:17:15;;;;;;;;;;;0.80;99.90;;;;;;5072810;28;19932;-75
2022/01/14 12:19:42;;;;;;;;;;;0.90;99.90;;;;;;5066054;28;20012;-75
2022/01/14 12:22:10;;;;;;;;;;;1.00;99.90;;;;;;5082402;28;19939;-75
2022/01/14 12:24:37;;;;;;;;;;;1.00;99.90;;;;;;5075844;28;19937;-75
2022/01/14 12:27:05;;;;;;;;;;;1.10;99.90;;;;;;5072795;28;19935;-75
2022/01/14 12:29:36;;;;;;;;;;;1.00;99.90;;;;;;5075192;28;19972;-74
2022/01/14 12:32:09;;;;;;;;;;;0.90;99.90;;;;;;5074238;28;19927;-75
2022/01/14 12:34:37;;;;;;;;;;;1.00;99.90;;;;;;5075782;28;19939;-75
2022/01/14 12:37:05;;;;;;;;;;;1.00;99.90;;;;;;5073831;28;19928;-75
2022/01/14 12:39:32;;;;;;;;;;;1.00;99.90;;;;;;5072933;28;19928;-75
2022/01/14 12:42:03;;;;;;;;;;;1.00;99.90;;;;;;5079773;28;19931;-76
2022/01/14 12:44:29;;;;;;;;;;;1.10;99.90;;;;;;5072005;28;20044;-76
2022/01/14 12:47:00;;;;;;;;;;;1.10;99.90;;;;;;5076931;28;20015;-75
2022/01/14 12:49:29;;;;;;;;;;;1.00;99.90;;;;;;5068451;28;20011;-75
2022/01/14 12:52:02;;;;;;;;;;;1.00;99.90;;;;;;5075655;28;20075;-77
2022/01/14 12:54:30;;;;;;;;;;;1.00;99.90;;;;;;5069330;28;19930;-75
2022/01/14 12:56:57;;;;;;;;;;;1.00;99.90;;;;;;5076020;28;19939;-76
2022/01/14 12:59:25;;;;;;;;;;;1.00;99.90;;;;;;5081302;28;20003;-75
2022/01/14 13:01:53;;;;;;;;;;;0.90;99.90;;;;;;5069427;28;19935;-76
2022/01/14 13:04:22;;;;;;;;;;;0.90;99.90;;;;;;5077240;28;20382;-75
2022/01/14 13:06:53;;;;;;;;;;;0.80;99.90;;;;;;5079821;28;19938;-75
2022/01/14 13:09:23;;;;;;;;;;;0.60;99.90;;;;;;5083819;28;19981;-75
2022/01/14 13:12:00;;;;;;;;;;;0.50;99.90;;;;;;5068928;28;19920;-74
2022/01/14 13:14:29;;;;;;;;;;;0.40;99.90;;;;;;5084860;28;20393;-74
2022/01/14 13:16:57;;;;;;;;;;;0.30;99.90;;;;;;5074071;28;20390;-74
2022/01/14 13:19:29;;;;;;;;;;;0.30;99.90;;;;;;5074526;28;20034;-74
2022/01/14 13:21:56;;;;;;;;;;;0.30;99.90;;;;;;5077104;28;19934;-75
2022/01/14 13:24:25;;;;;;;;;;;0.40;99.90;;;;;;5080029;28;19924;-75
2022/01/14 13:27:04;;;;;;;;;;;0.60;99.90;;;;;;5076481;28;20425;-75
2022/01/14 13:29:38;;;;;;;;;;;0.60;99.90;;;;;;5077226;28;20567;-75
2022/01/14 13:32:05;;;;;;;;;;;0.60;99.90;;;;;;5078598;28;20014;-75
2022/01/14 13:34:32;;;;;;;;;;;0.50;99.90;;;;;;5085390;28;19920;-75
2022/01/14 13:37:00;;;;;;;;;;;0.30;99.90;;;;;;5072395;28;20031;-75
2022/01/14 13:39:27;;;;;;;;;;;0.30;99.90;;;;;;5070696;28;19938;-74
2022/01/14 13:41:54;;;;;;;;;;;0.30;99.90;;;;;;5079747;28;20019;-75
2022/01/14 13:44:31;;;;;;;;;;;0.40;99.90;;;;;;5074695;28;19935;-75
2022/01/14 13:47:01;;;;;;;;;;;0.30;99.90;;;;;;5083262;28;19920;-75
2022/01/14 13:49:28;;;;;;;;;;;0.20;99.90;;;;;;5078888;28;19924;-75
2022/01/14 13:52:08;;;;;;;;;;;0.20;99.90;;;;;;5076799;28;19920;-75
2022/01/14 13:54:35;;;;;;;;;;;0.30;99.90;;;;;;5077414;28;19949;-76
2022/01/14 13:57:09;;;;;;;;;;;0.30;99.90;;;;;;5073593;28;19928;-74
2022/01/14 13:59:36;;;;;;;;;;;0.40;99.90;;;;;;5084604;28;19932;-75
2022/01/14 14:02:05;;;;;;;;;;;0.50;99.90;;;;;;5073197;28;19947;-74
2022/01/14 14:04:35;;;;;;;;;;;0.60;99.90;;;;;;5079393;28;19924;-75
2022/01/14 14:07:15;;;;;;;;;;;0.60;99.90;;;;;;5079467;28;19920;-75
2022/01/14 14:12:25;;;;;;;;;;;0.60;99.90;;;;;;5080771;28;24106;-75
2022/01/14 14:17:38;;;;;;;;;;;0.70;99.90;;;;;;5081413;28;19931;-75
2022/01/14 14:20:06;;;;;;;;;;;0.70;99.90;;;;;;5081059;28;19931;-75
2022/01/14 14:22:36;;;;;;;;;;;0.60;99.90;;;;;;5079679;28;20389;-75
2022/01/14 14:25:06;;;;;;;;;;;0.50;99.90;;;;;;5082608;28;19920;-75
2022/01/14 14:27:33;;;;;;;;;;;0.50;99.90;;;;;;5080840;28;20010;-75
2022/01/14 14:30:05;;;;;;;;;;;0.50;99.90;;;;;;5077960;28;20012;-75
2022/01/14 14:32:36;;;;;;;;;;;0.50;99.90;;;;;;5075721;28;19974;-75
2022/01/14 14:35:05;;;;;;;;;;;0.50;99.90;;;;;;5084701;28;19920;-74
2022/01/14 14:37:36;;;;;;;;;;;0.50;99.90;;;;;;5055296;28;22929;-75
2022/01/14 14:40:05;;;;;;;;;;;0.50;99.90;;;;;;5084510;28;19927;-75
2022/01/14 14:42:32;;;;;;;;;;;0.50;99.90;;;;;;5076206;28;20129;-73
2022/01/14 14:44:58;;;;;;;;;;;0.50;99.90;;;;;;5081109;28;20003;-72
2022/01/14 14:47:25;;;;;;;;;;;0.40;99.90;;;;;;5079593;28;19920;-73
2022/01/14 14:49:53;;;;;;;;;;;0.40;99.90;;;;;;5083616;28;20534;-74
2022/01/14 14:52:20;;;;;;;;;;;0.40;99.90;;;;;;5077477;28;19920;-74
2022/01/14 14:54:47;;;;;;;;;;;0.30;99.90;;;;;;5080746;28;19963;-73
2022/01/14 14:57:14;;;;;;;;;;;0.20;99.90;;;;;;5087430;28;20347;-74
2022/01/14 14:59:41;;;;;;;;;;;0.20;99.90;;;;;;5078869;28;19928;-77
2022/01/14 15:02:10;;;;;;;;;;;0.10;99.90;;;;;;5080273;28;19920;-74
2022/01/14 15:04:38;;;;;;;;;;;0.10;99.90;;;;;;5076688;28;20379;-74